createdAt,value
2023-03-31T00:00:54.309Z,10.17
2023-03-31T00:03:24.053Z,10.09
2023-03-31T00:05:58.900Z,10.24
2023-03-31T00:08:30.465Z,10.20
2023-03-31T00:11:00.114Z,10.28
2023-03-31T00:13:28.009Z,10.25
2023-03-31T00:15:59.789Z,10.15
2023-03-31T00:18:27.778Z,10.19
2023-03-31T00:20:58.555Z,10.17
2023-03-31T00:23:29.120Z,10.18
2023-03-31T00:25:57.359Z,10.14
2023-03-31T00:28:25.417Z,10.21
2023-03-31T00:30:53.625Z,10.20
2023-03-31T00:33:23.008Z,10.16
2023-03-31T00:35:52.958Z,10.19
2023-03-31T00:38:21.986Z,10.32
2023-03-31T00:40:51.945Z,10.23
2023-03-31T00:43:30.975Z,10.24
2023-03-31T00:46:04.788Z,10.20
2023-03-31T00:48:34.432Z,10.08
2023-03-31T00:51:04.879Z,10.21
2023-03-31T00:53:33.356Z,10.18
2023-03-31T00:56:03.729Z,10.08
2023-03-31T00:58:33.304Z,10.21
2023-03-31T01:01:02.415Z,10.23
2023-03-31T01:03:30.703Z,10.24
2023-03-31T01:06:01.400Z,10.25
2023-03-31T01:08:29.452Z,10.31
2023-03-31T01:10:58.570Z,10.30
2023-03-31T01:13:27.196Z,10.34
2023-03-31T01:15:55.443Z,10.26
2023-03-31T01:18:23.512Z,10.23
2023-03-31T01:21:18.816Z,10.23
2023-03-31T01:24:04.256Z,10.39
2023-03-31T01:26:46.545Z,10.22
2023-03-31T01:29:25.653Z,10.16
2023-03-31T01:32:05.060Z,10.22
2023-03-31T01:35:01.824Z,10.21
2023-03-31T01:37:59.497Z,10.24
2023-03-31T01:40:55.758Z,10.17
2023-03-31T01:43:24.880Z,10.16
2023-03-31T01:45:57.719Z,10.41
2023-03-31T01:48:34.065Z,10.25
2023-03-31T01:51:03.390Z,10.28
2023-03-31T01:53:32.977Z,10.23
2023-03-31T01:56:04.394Z,10.25
2023-03-31T01:58:33.881Z,10.11
2023-03-31T02:01:03.843Z,10.09
2023-03-31T02:03:33.162Z,10.10
2023-03-31T02:06:04.637Z,10.00
2023-03-31T02:08:34.754Z,10.13
2023-03-31T02:11:04.152Z,10.19
2023-03-31T02:13:32.143Z,10.21
2023-03-31T02:16:01.566Z,10.12
2023-03-31T02:18:31.083Z,10.10
2023-03-31T02:20:59.133Z,10.12
2023-03-31T02:23:29.610Z,10.18
2023-03-31T02:26:00.917Z,10.25
2023-03-31T02:28:30.510Z,10.30
2023-03-31T02:31:05.620Z,10.22
2023-03-31T02:33:33.682Z,10.16
2023-03-31T02:36:01.586Z,10.30
2023-03-31T02:38:31.620Z,10.21
2023-03-31T02:40:59.583Z,10.27
2023-03-31T02:43:27.472Z,10.32
2023-03-31T02:45:57.015Z,10.24
2023-03-31T02:48:25.822Z,10.34
2023-03-31T02:51:13.369Z,10.31
2023-03-31T02:53:48.813Z,10.29
2023-03-31T02:56:26.313Z,10.21
2023-03-31T02:59:01.597Z,10.17
2023-03-31T03:01:39.864Z,10.16
2023-03-31T03:04:12.829Z,10.12
2023-03-31T03:06:43.828Z,10.21
2023-03-31T03:09:22.608Z,10.13
2023-03-31T03:11:53.097Z,10.22
2023-03-31T03:14:25.953Z,10.14
2023-03-31T03:16:58.403Z,10.10
2023-03-31T03:19:26.522Z,10.12
2023-03-31T03:21:54.442Z,9.98
2023-03-31T03:24:22.952Z,10.00
2023-03-31T03:26:51.821Z,10.06
2023-03-31T03:29:20.208Z,10.02
2023-03-31T03:31:48.160Z,10.09
2023-03-31T03:34:18.815Z,10.04
2023-03-31T03:36:46.876Z,9.93
2023-03-31T03:39:14.744Z,10.03
2023-03-31T03:41:42.618Z,10.08
2023-03-31T03:44:10.847Z,10.08
2023-03-31T03:46:38.825Z,10.00
2023-03-31T03:49:06.779Z,10.04
2023-03-31T03:51:36.132Z,10.03
2023-03-31T03:54:04.077Z,10.06
2023-03-31T03:56:31.958Z,9.99
2023-03-31T03:59:00.178Z,9.91
2023-03-31T04:01:28.032Z,10.02
2023-03-31T04:03:55.900Z,9.94
2023-03-31T04:06:23.790Z,9.94
2023-03-31T04:08:53.086Z,9.92
2023-03-31T04:11:20.952Z,9.89
2023-03-31T04:13:48.960Z,9.96
2023-03-31T04:16:17.343Z,9.98
2023-03-31T04:18:45.262Z,10.00
2023-03-31T04:21:15.481Z,9.94
2023-03-31T04:23:46.871Z,9.83
2023-03-31T04:26:17.288Z,9.89
2023-03-31T04:28:50.761Z,9.90
2023-03-31T04:31:26.689Z,9.84
2023-03-31T04:33:54.816Z,9.83
2023-03-31T04:36:23.042Z,9.79
2023-03-31T04:38:54.751Z,9.82
2023-03-31T04:41:24.253Z,9.85
2023-03-31T04:43:52.159Z,9.89
2023-03-31T04:46:20.047Z,9.92
2023-03-31T04:48:48.062Z,9.88
2023-03-31T04:51:16.482Z,9.79
2023-03-31T04:53:44.656Z,9.90
2023-03-31T04:56:12.564Z,9.90
2023-03-31T04:58:41.813Z,9.69
2023-03-31T05:01:10.229Z,9.71
2023-03-31T05:03:38.197Z,9.77
2023-03-31T05:06:06.914Z,9.83
2023-03-31T05:08:35.317Z,9.81
2023-03-31T05:11:04.016Z,9.80
2023-03-31T05:13:31.979Z,9.77
2023-03-31T05:16:07.231Z,9.75
2023-03-31T05:18:35.376Z,9.73
2023-03-31T05:21:16.504Z,9.69
2023-03-31T05:23:44.807Z,9.64
2023-03-31T05:26:13.661Z,9.57
2023-03-31T05:28:42.205Z,9.62
2023-03-31T05:31:13.293Z,9.61
2023-03-31T05:33:42.282Z,9.59
2023-03-31T05:36:11.129Z,9.56
2023-03-31T05:38:39.065Z,9.46
2023-03-31T05:41:08.387Z,9.51
2023-03-31T05:43:36.646Z,9.55
2023-03-31T05:46:04.996Z,9.48
2023-03-31T05:48:34.626Z,9.51
2023-03-31T05:51:03.019Z,9.49
2023-03-31T05:53:31.671Z,9.55
2023-03-31T05:56:00.224Z,9.51
2023-03-31T05:58:28.160Z,9.48
2023-03-31T06:01:06.039Z,9.52
2023-03-31T06:03:35.666Z,9.44
2023-03-31T06:06:05.306Z,9.45
2023-03-31T06:08:33.332Z,9.45
2023-03-31T06:11:01.363Z,9.54
2023-03-31T06:13:29.240Z,9.39
2023-03-31T06:15:57.561Z,9.39
2023-03-31T06:18:25.863Z,9.35
2023-03-31T06:20:55.521Z,9.44
2023-03-31T06:23:23.539Z,9.38
2023-03-31T06:25:52.593Z,9.44
2023-03-31T06:28:21.455Z,9.50
2023-03-31T06:30:49.398Z,9.41
2023-03-31T06:33:17.695Z,9.35
2023-03-31T06:35:45.615Z,9.37
2023-03-31T06:38:14.972Z,9.39
2023-03-31T06:40:43.622Z,9.39
2023-03-31T06:43:11.885Z,9.37
2023-03-31T06:45:39.848Z,9.32
2023-03-31T06:48:08.345Z,9.27
2023-03-31T06:50:38.843Z,9.42
2023-03-31T06:53:06.778Z,9.29
2023-03-31T06:55:36.170Z,9.36
2023-03-31T06:58:04.412Z,9.34
2023-03-31T07:00:32.452Z,9.42
2023-03-31T07:03:01.369Z,9.35
2023-03-31T07:05:29.413Z,9.28
2023-03-31T07:07:57.898Z,9.34
2023-03-31T07:10:26.221Z,9.26
2023-03-31T07:12:55.561Z,9.40
2023-03-31T07:15:23.790Z,9.30
2023-03-31T07:17:54.115Z,9.26
2023-03-31T07:20:22.450Z,9.19
2023-03-31T07:22:50.416Z,9.28
2023-03-31T07:25:18.537Z,9.30
2023-03-31T07:27:46.449Z,9.35
2023-03-31T07:30:16.777Z,9.42
2023-03-31T07:32:47.574Z,9.29
2023-03-31T07:35:15.653Z,9.31
2023-03-31T07:37:45.089Z,9.38
2023-03-31T07:40:15.457Z,9.45
2023-03-31T07:42:43.476Z,9.41
2023-03-31T07:45:11.962Z,9.40
2023-03-31T07:47:41.409Z,9.50
2023-03-31T07:50:10.380Z,9.48
2023-03-31T07:52:38.375Z,9.53
2023-03-31T07:55:06.927Z,9.52
2023-03-31T07:57:34.928Z,9.61
2023-03-31T08:00:07.084Z,9.66
2023-03-31T08:02:35.186Z,9.74
2023-03-31T08:05:04.815Z,9.73
2023-03-31T08:07:34.935Z,9.76
2023-03-31T08:10:04.429Z,9.84
2023-03-31T08:12:32.509Z,9.84
2023-03-31T08:15:00.385Z,9.83
2023-03-31T08:17:28.434Z,9.98
2023-03-31T08:19:56.447Z,10.05
2023-03-31T08:22:26.474Z,10.24
2023-03-31T08:24:54.393Z,10.36
2023-03-31T08:27:22.297Z,10.44
2023-03-31T08:29:50.545Z,10.46
2023-03-31T08:32:18.446Z,10.43
2023-03-31T08:34:46.642Z,10.61
2023-03-31T08:37:15.190Z,10.66
2023-03-31T08:39:44.510Z,11.05
2023-03-31T08:42:15.907Z,11.30
2023-03-31T08:44:46.378Z,11.42
2023-03-31T08:47:17.021Z,11.38
2023-03-31T08:49:47.196Z,11.40
2023-03-31T08:52:16.971Z,11.39
2023-03-31T08:54:49.550Z,11.77
2023-03-31T08:57:20.335Z,11.63
2023-03-31T08:59:48.339Z,11.44
2023-03-31T09:02:22.407Z,11.49
2023-03-31T09:05:00.662Z,11.32
2023-03-31T09:07:32.211Z,11.42
2023-03-31T09:10:04.389Z,11.46
2023-03-31T09:12:36.459Z,11.57
2023-03-31T09:15:05.510Z,11.52
2023-03-31T09:17:35.065Z,11.58
2023-03-31T09:20:10.220Z,11.59
2023-03-31T09:22:42.847Z,11.73
2023-03-31T09:25:17.579Z,11.74
2023-03-31T09:27:47.756Z,11.89
2023-03-31T09:30:18.224Z,12.08
2023-03-31T09:32:51.427Z,12.38
2023-03-31T09:35:26.010Z,12.42
2023-03-31T09:37:54.418Z,12.51
2023-03-31T09:40:24.877Z,12.73
2023-03-31T09:42:56.328Z,12.81
2023-03-31T09:45:25.148Z,12.87
2023-03-31T09:47:55.244Z,13.04
2023-03-31T09:50:25.423Z,13.06
2023-03-31T09:52:54.840Z,12.72
2023-03-31T09:55:38.806Z,12.57
2023-03-31T09:58:09.253Z,12.55
2023-03-31T10:00:37.201Z,12.77
2023-03-31T10:03:07.697Z,12.79
2023-03-31T10:05:37.685Z,12.94
2023-03-31T10:08:30.013Z,12.91
2023-03-31T10:11:12.659Z,12.97
2023-03-31T10:13:50.574Z,13.03
2023-03-31T10:16:26.913Z,13.12
2023-03-31T10:18:57.382Z,13.14
2023-03-31T10:21:31.926Z,13.30
2023-03-31T10:24:04.301Z,13.21
2023-03-31T10:26:34.439Z,13.26
2023-03-31T10:29:04.358Z,13.41
2023-03-31T10:31:39.933Z,13.52
2023-03-31T10:34:14.934Z,13.88
2023-03-31T10:36:52.547Z,13.84
2023-03-31T10:39:36.324Z,13.97
2023-03-31T10:42:12.048Z,13.76
2023-03-31T10:44:40.950Z,13.79
2023-03-31T10:47:23.599Z,13.82
2023-03-31T10:49:53.032Z,13.80
2023-03-31T10:52:28.858Z,13.54
2023-03-31T10:55:02.234Z,13.95
2023-03-31T10:57:40.334Z,13.77
2023-03-31T11:00:15.389Z,13.69
2023-03-31T11:03:05.051Z,13.62
2023-03-31T11:05:44.696Z,13.83
2023-03-31T11:08:40.407Z,14.13
2023-03-31T11:11:45.408Z,14.18
2023-03-31T11:15:12.912Z,14.16
2023-03-31T11:17:52.696Z,14.32
2023-03-31T11:20:22.500Z,14.51
2023-03-31T11:22:53.701Z,14.40
2023-03-31T11:25:24.935Z,14.20
2023-03-31T11:28:28.327Z,14.04
2023-03-31T11:31:01.949Z,13.69
2023-03-31T11:33:49.350Z,13.10
2023-03-31T11:36:31.582Z,13.07
2023-03-31T11:39:11.960Z,12.16
2023-03-31T11:41:41.197Z,11.69
2023-03-31T11:44:11.726Z,11.31
2023-03-31T11:46:43.722Z,11.28
2023-03-31T11:49:21.192Z,11.06
2023-03-31T11:51:58.014Z,11.06
2023-03-31T11:54:31.169Z,10.77
2023-03-31T11:57:05.106Z,10.61
2023-03-31T11:59:34.370Z,10.53
2023-03-31T12:02:06.258Z,10.89
2023-03-31T12:04:35.963Z,11.06
2023-03-31T12:07:17.979Z,11.12
2023-03-31T12:09:52.584Z,11.00
2023-03-31T12:12:22.098Z,10.96
2023-03-31T12:14:52.406Z,11.08
2023-03-31T12:17:25.039Z,11.45
2023-03-31T12:19:56.690Z,11.58
2023-03-31T12:22:30.016Z,11.73
2023-03-31T12:24:58.328Z,11.63
2023-03-31T12:27:31.226Z,11.80
2023-03-31T12:30:00.658Z,11.99
2023-03-31T12:32:38.340Z,12.06
2023-03-31T12:35:10.062Z,12.17
2023-03-31T12:38:05.763Z,12.07
2023-03-31T12:40:40.318Z,12.08
2023-03-31T12:43:31.853Z,12.04
2023-03-31T12:46:05.456Z,12.19
2023-03-31T12:49:01.869Z,12.50
2023-03-31T12:51:40.730Z,12.47
2023-03-31T12:54:20.616Z,12.38
2023-03-31T12:57:17.274Z,12.40
2023-03-31T12:59:46.478Z,12.46
2023-03-31T13:02:26.313Z,12.40
2023-03-31T13:04:55.762Z,12.64
2023-03-31T13:07:42.531Z,12.57
2023-03-31T13:10:29.987Z,12.37
2023-03-31T13:13:02.380Z,12.31
2023-03-31T13:15:31.200Z,11.88
2023-03-31T13:18:00.582Z,11.91
2023-03-31T13:20:37.770Z,12.15
2023-03-31T13:23:07.561Z,12.28
2023-03-31T13:25:50.031Z,12.36
2023-03-31T13:28:29.072Z,12.60
2023-03-31T13:31:00.804Z,12.59
2023-03-31T13:33:41.179Z,12.68
2023-03-31T13:36:55.228Z,12.73
2023-03-31T13:39:40.630Z,12.66
2023-03-31T13:42:24.634Z,12.91
2023-03-31T13:45:06.729Z,12.82
2023-03-31T13:47:58.514Z,12.87
2023-03-31T13:50:45.553Z,13.15
2023-03-31T13:53:26.152Z,13.11
2023-03-31T13:56:14.477Z,12.99
2023-03-31T13:59:01.438Z,13.06
2023-03-31T14:01:43.013Z,13.07
2023-03-31T14:04:18.224Z,12.87
2023-03-31T14:06:48.526Z,13.08
2023-03-31T14:09:21.552Z,13.06
2023-03-31T14:11:50.698Z,13.11
2023-03-31T14:14:19.232Z,13.11
2023-03-31T14:16:47.716Z,13.16
2023-03-31T14:19:32.854Z,12.87
2023-03-31T14:22:04.762Z,13.02
2023-03-31T14:24:35.892Z,12.86
2023-03-31T14:27:07.745Z,12.83
2023-03-31T14:29:37.615Z,12.94
2023-03-31T14:32:16.712Z,13.19
2023-03-31T14:34:59.956Z,13.24
2023-03-31T14:37:29.446Z,13.21
2023-03-31T14:39:59.744Z,13.19
2023-03-31T14:42:49.414Z,13.54
2023-03-31T14:45:19.724Z,13.55
2023-03-31T14:47:57.582Z,13.52
2023-03-31T14:50:31.573Z,13.48
2023-03-31T14:52:59.722Z,13.44
2023-03-31T14:55:44.245Z,13.38
2023-03-31T14:58:22.347Z,13.35
2023-03-31T15:00:50.579Z,13.26
2023-03-31T15:03:18.746Z,13.30
2023-03-31T15:05:48.950Z,13.19
2023-03-31T15:08:19.646Z,13.26
2023-03-31T15:10:54.045Z,12.98
2023-03-31T15:13:28.976Z,12.99
2023-03-31T15:15:56.870Z,12.85
2023-03-31T15:18:26.965Z,12.96
2023-03-31T15:20:54.993Z,12.70
2023-03-31T15:23:27.473Z,12.90
2023-03-31T15:25:58.621Z,12.96
2023-03-31T15:28:27.043Z,12.79
2023-03-31T15:33:43.635Z,12.40
2023-03-31T15:36:12.521Z,12.66
2023-03-31T15:38:40.467Z,12.26
2023-03-31T15:41:14.043Z,12.42
2023-03-31T15:43:47.458Z,12.32
2023-03-31T15:46:19.748Z,12.25
2023-03-31T15:48:51.722Z,12.31
2023-03-31T15:51:20.502Z,12.26
2023-03-31T15:53:49.065Z,12.15
2023-03-31T15:56:32.455Z,11.83
2023-03-31T15:59:03.646Z,11.67
2023-03-31T16:01:33.122Z,11.67
2023-03-31T16:04:01.568Z,11.27
2023-03-31T16:06:35.855Z,11.19
2023-03-31T16:09:06.112Z,11.40
2023-03-31T16:11:40.991Z,11.15
2023-03-31T16:14:11.869Z,11.01
2023-03-31T16:16:45.434Z,10.90
2023-03-31T16:19:24.581Z,10.93
2023-03-31T16:21:53.149Z,10.86
2023-03-31T16:24:21.356Z,10.78
2023-03-31T16:26:50.981Z,10.94
2023-03-31T16:29:22.889Z,10.85
2023-03-31T16:31:50.926Z,10.73
2023-03-31T16:34:18.895Z,10.77
2023-03-31T16:36:47.563Z,10.76
2023-03-31T16:39:16.194Z,10.85
2023-03-31T16:41:44.065Z,10.99
2023-03-31T16:44:13.329Z,10.82
2023-03-31T16:46:42.562Z,10.93
2023-03-31T16:49:11.309Z,10.80
2023-03-31T16:51:40.041Z,10.77
2023-03-31T16:54:09.063Z,10.76
2023-03-31T16:56:37.080Z,10.75
2023-03-31T16:59:04.992Z,10.69
2023-03-31T17:01:34.382Z,10.73
2023-03-31T17:04:02.626Z,10.79
2023-03-31T17:06:30.514Z,10.90
2023-03-31T17:08:58.726Z,10.80
2023-03-31T17:11:29.116Z,10.93
2023-03-31T17:13:57.260Z,10.81
2023-03-31T17:16:32.976Z,10.76
2023-03-31T17:19:17.357Z,10.87
2023-03-31T17:21:45.261Z,10.81
2023-03-31T17:24:14.636Z,10.63
2023-03-31T17:26:42.620Z,10.66
2023-03-31T17:29:15.588Z,10.57
2023-03-31T17:31:46.151Z,10.50
2023-03-31T17:34:16.996Z,10.64
2023-03-31T17:36:46.290Z,10.72
2023-03-31T17:39:14.550Z,10.74
2023-03-31T17:41:49.757Z,10.74
2023-03-31T17:44:24.877Z,10.68
2023-03-31T17:47:04.142Z,10.58
2023-03-31T17:49:34.114Z,10.44
2023-03-31T17:52:02.262Z,10.63
2023-03-31T17:54:30.544Z,10.64
2023-03-31T17:56:59.095Z,10.51
2023-03-31T17:59:27.112Z,10.50
2023-03-31T18:01:55.448Z,10.47
2023-03-31T18:04:25.224Z,10.38
2023-03-31T18:06:55.275Z,10.52
2023-03-31T18:09:25.706Z,10.50
2023-03-31T18:11:53.872Z,10.42
2023-03-31T18:14:22.505Z,10.50
2023-03-31T18:16:57.161Z,10.43
2023-03-31T18:19:25.865Z,10.33
2023-03-31T18:21:55.193Z,10.29
2023-03-31T18:24:23.916Z,10.20
2023-03-31T18:26:54.222Z,10.24
2023-03-31T18:29:22.136Z,10.36
2023-03-31T18:31:51.144Z,10.36
2023-03-31T18:34:19.572Z,10.29
2023-03-31T18:36:47.624Z,10.42
2023-03-31T18:39:20.363Z,10.32
2023-03-31T18:41:50.930Z,10.44
2023-03-31T18:44:19.673Z,10.27
2023-03-31T18:46:47.918Z,10.26
2023-03-31T18:49:16.405Z,10.35
2023-03-31T18:51:44.345Z,10.32
2023-03-31T18:54:12.562Z,10.40
2023-03-31T18:56:41.849Z,10.27
2023-03-31T18:59:09.800Z,10.18
2023-03-31T19:01:40.641Z,10.11
2023-03-31T19:04:10.616Z,10.31
2023-03-31T19:06:38.606Z,10.37
2023-03-31T19:09:06.911Z,10.37
2023-03-31T19:11:34.900Z,10.34
2023-03-31T19:14:04.448Z,10.26
2023-03-31T19:16:32.619Z,10.23
2023-03-31T19:19:00.537Z,10.23
2023-03-31T19:21:32.433Z,10.01
2023-03-31T19:24:00.647Z,10.03
2023-03-31T19:26:29.728Z,10.06
2023-03-31T19:28:58.142Z,10.20
2023-03-31T19:31:27.963Z,10.23
2023-03-31T19:33:55.930Z,10.30
2023-03-31T19:36:23.881Z,10.07
2023-03-31T19:38:51.997Z,10.07
2023-03-31T19:41:20.226Z,10.06
2023-03-31T19:43:48.122Z,10.05
2023-03-31T19:46:16.113Z,9.95
2023-03-31T19:48:45.685Z,10.03
2023-03-31T19:51:13.651Z,10.04
2023-03-31T19:53:41.927Z,10.00
2023-03-31T19:56:10.477Z,9.93
2023-03-31T19:58:38.587Z,9.93
2023-03-31T20:01:07.564Z,9.97
2023-03-31T20:03:36.099Z,9.90
2023-03-31T20:06:07.151Z,9.88
2023-03-31T20:08:35.285Z,9.92
2023-03-31T20:11:04.001Z,9.88
2023-03-31T20:13:32.657Z,9.89
2023-03-31T20:16:01.856Z,9.66
2023-03-31T20:18:30.104Z,9.78
2023-03-31T20:21:06.657Z,9.73
2023-03-31T20:23:34.844Z,9.77
2023-03-31T20:26:02.908Z,9.55
2023-03-31T20:28:31.355Z,9.59
2023-03-31T20:30:59.316Z,9.65
2023-03-31T20:33:27.280Z,9.62
2023-03-31T20:36:02.599Z,9.59
2023-03-31T20:38:31.958Z,9.58
2023-03-31T20:41:00.186Z,9.50
2023-03-31T20:43:28.059Z,9.57
2023-03-31T20:45:57.927Z,9.51
2023-03-31T20:48:26.000Z,9.51
2023-03-31T20:50:54.212Z,9.55
2023-03-31T20:53:22.236Z,9.71
2023-03-31T20:55:52.018Z,9.63
2023-03-31T20:58:19.898Z,9.65
2023-03-31T21:00:47.902Z,9.53
2023-03-31T21:03:15.881Z,9.50
2023-03-31T21:05:44.084Z,9.63
2023-03-31T21:08:12.098Z,9.55
2023-03-31T21:10:41.860Z,9.58
2023-03-31T21:13:11.473Z,9.55
2023-03-31T21:15:39.422Z,9.55
2023-03-31T21:18:07.472Z,9.49
2023-03-31T21:20:35.387Z,9.57
2023-03-31T21:23:03.423Z,9.45
2023-03-31T21:25:32.813Z,9.47
2023-03-31T21:28:01.430Z,9.39
2023-03-31T21:30:31.121Z,9.34
2023-03-31T21:32:59.030Z,9.55
2023-03-31T21:35:27.238Z,9.46
2023-03-31T21:37:55.165Z,9.31
2023-03-31T21:40:23.435Z,9.31
2023-03-31T21:42:51.482Z,9.47
2023-03-31T21:45:19.376Z,9.41
2023-03-31T21:47:48.761Z,9.44
2023-03-31T21:50:17.161Z,9.48
2023-03-31T21:52:45.178Z,9.49
2023-03-31T21:55:13.036Z,9.63
2023-03-31T21:57:41.231Z,9.37
2023-03-31T22:00:12.305Z,9.35
2023-03-31T22:02:40.371Z,9.28
2023-03-31T22:05:10.751Z,9.34
2023-03-31T22:07:38.899Z,9.39
2023-03-31T22:10:07.556Z,9.44
2023-03-31T22:12:35.766Z,9.38
2023-03-31T22:15:03.700Z,9.42
2023-03-31T22:17:31.672Z,9.49
2023-03-31T22:19:59.580Z,9.33
2023-03-31T22:22:28.907Z,9.28
2023-03-31T22:24:56.816Z,9.27
2023-03-31T22:27:24.962Z,9.44
2023-03-31T22:29:52.878Z,9.45
2023-03-31T22:32:21.617Z,9.44
2023-03-31T22:34:50.534Z,9.49
2023-03-31T22:37:18.418Z,9.41
2023-03-31T22:39:47.772Z,9.45
2023-03-31T22:42:16.022Z,9.54
2023-03-31T22:44:44.268Z,9.47
2023-03-31T22:47:12.573Z,9.51
2023-03-31T22:49:40.790Z,9.48
2023-03-31T22:52:08.808Z,9.36
2023-03-31T22:54:36.786Z,9.41
2023-03-31T22:57:06.349Z,9.39
2023-03-31T22:59:34.373Z,9.35
2023-03-31T23:02:02.465Z,9.42
2023-03-31T23:04:30.479Z,9.43
2023-03-31T23:06:58.437Z,9.33
2023-03-31T23:09:27.100Z,9.37
2023-03-31T23:11:55.028Z,9.44
2023-03-31T23:14:24.424Z,9.35
2023-03-31T23:16:52.866Z,9.22
2023-03-31T23:19:20.771Z,9.33
2023-03-31T23:21:49.521Z,9.19
2023-03-31T23:24:20.036Z,9.21
2023-03-31T23:26:48.064Z,9.18
2023-03-31T23:29:15.994Z,9.18
2023-03-31T23:31:45.329Z,9.22
2023-03-31T23:34:14.009Z,9.29
2023-03-31T23:36:42.161Z,9.21
2023-03-31T23:39:10.691Z,9.17
2023-03-31T23:41:38.547Z,9.18
2023-03-31T23:44:07.425Z,9.14
2023-03-31T23:46:38.890Z,9.24
2023-03-31T23:49:11.682Z,9.19
2023-03-31T23:51:39.889Z,9.15
2023-03-31T23:54:08.178Z,8.97
2023-03-31T23:56:36.156Z,9.07
2023-03-31T23:59:04.195Z,9.05
